createdAt,value
2023-01-13T00:01:27.172Z,6.65
2023-01-13T00:04:29.361Z,6.47
2023-01-13T00:07:31.583Z,7.55
2023-01-13T00:10:34.634Z,7.15
2023-01-13T00:13:38.512Z,7.55
2023-01-13T00:16:40.622Z,7.43
2023-01-13T00:19:42.830Z,7.28
2023-01-13T00:22:44.985Z,7.10
2023-01-13T00:25:47.118Z,5.62
2023-01-13T00:28:49.642Z,7.12
2023-01-13T00:31:51.892Z,5.57
2023-01-13T00:34:54.345Z,5.60
2023-01-13T00:37:56.537Z,6.25
2023-01-13T00:40:59.271Z,5.30
2023-01-13T00:44:01.424Z,5.75
2023-01-13T00:47:03.696Z,6.28
2023-01-13T00:50:06.292Z,6.90
2023-01-13T00:53:08.495Z,5.35
2023-01-13T00:56:39.029Z,5.43
2023-01-13T00:59:42.140Z,4.90
2023-01-13T01:02:44.404Z,5.93
2023-01-13T01:05:46.639Z,6.12
2023-01-13T01:08:49.079Z,5.82
2023-01-13T01:11:51.265Z,6.30
2023-01-13T01:14:53.492Z,6.55
2023-01-13T01:17:55.645Z,5.62
2023-01-13T01:21:00.108Z,6.05
2023-01-13T01:24:03.769Z,5.70
2023-01-13T01:27:05.966Z,6.25
2023-01-13T01:30:09.063Z,5.87
2023-01-13T01:33:11.223Z,5.75
2023-01-13T01:36:15.685Z,6.10
2023-01-13T01:39:17.883Z,6.20
2023-01-13T01:42:38.734Z,5.35
2023-01-13T01:45:42.801Z,5.60
2023-01-13T01:48:44.975Z,6.07
2023-01-13T01:51:49.253Z,6.00
2023-01-13T01:54:55.446Z,5.60
2023-01-13T01:58:14.887Z,5.82
2023-01-13T02:01:17.426Z,6.03
2023-01-13T02:04:23.708Z,5.80
2023-01-13T02:07:31.601Z,4.75
2023-01-13T02:10:33.897Z,5.22
2023-01-13T02:13:36.129Z,5.30
2023-01-13T02:16:43.819Z,6.18
2023-01-13T02:19:51.815Z,5.65
2023-01-13T02:23:05.886Z,5.43
2023-01-13T02:26:10.820Z,5.15
2023-01-13T02:29:37.800Z,4.90
2023-01-13T02:32:49.234Z,5.37
2023-01-13T02:36:02.308Z,5.30
2023-01-13T02:39:16.317Z,5.20
2023-01-13T02:42:44.720Z,6.30
2023-01-13T02:45:53.109Z,4.45
2023-01-13T02:48:58.068Z,5.12
2023-01-13T02:52:27.570Z,5.00
2023-01-13T02:55:50.563Z,4.35
2023-01-13T02:58:54.211Z,4.82
2023-01-13T03:01:58.098Z,3.78
2023-01-13T03:05:00.628Z,6.00
2023-01-13T03:08:05.911Z,4.30
2023-01-13T03:11:15.063Z,5.10
2023-01-13T03:14:34.557Z,5.05
2023-01-13T03:17:50.067Z,4.70
2023-01-13T03:21:15.860Z,5.40
2023-01-13T03:24:27.593Z,4.00
2023-01-13T03:27:35.543Z,4.65
2023-01-13T03:30:43.673Z,4.70
2023-01-13T03:33:51.202Z,4.55
2023-01-13T03:36:54.648Z,4.22
2023-01-13T03:40:02.898Z,4.60
2023-01-13T03:43:29.592Z,4.43
2023-01-13T03:46:59.765Z,3.97
2023-01-13T03:50:20.038Z,4.37
2023-01-13T03:53:26.912Z,4.75
2023-01-13T03:56:42.807Z,5.00
2023-01-13T03:59:48.712Z,5.20
2023-01-13T04:02:57.851Z,3.85
2023-01-13T04:06:18.180Z,5.00
2023-01-13T04:09:45.844Z,4.37
2023-01-13T04:13:04.297Z,5.12
2023-01-13T04:16:07.616Z,4.47
2023-01-13T04:19:09.815Z,5.40
2023-01-13T04:22:12.012Z,5.25
2023-01-13T04:25:14.178Z,4.68
2023-01-13T04:28:17.287Z,4.53
2023-01-13T04:31:19.559Z,3.80
2023-01-13T04:34:22.006Z,4.55
2023-01-13T04:37:24.189Z,5.07
2023-01-13T04:40:26.385Z,4.50
2023-01-13T04:43:28.651Z,3.83
2023-01-13T04:46:30.865Z,4.65
2023-01-13T04:49:33.333Z,3.58
2023-01-13T04:52:35.542Z,4.97
2023-01-13T04:55:37.853Z,5.55
2023-01-13T04:58:40.081Z,4.22
2023-01-13T05:01:42.403Z,4.93
2023-01-13T05:04:44.718Z,3.85
2023-01-13T05:07:46.961Z,3.97
2023-01-13T05:10:49.167Z,4.53
2023-01-13T05:14:09.862Z,5.28
2023-01-13T05:17:20.733Z,4.43
2023-01-13T05:20:22.913Z,4.03
2023-01-13T05:23:43.680Z,5.45
2023-01-13T05:26:45.856Z,4.97
2023-01-13T05:29:48.043Z,5.10
2023-01-13T05:32:50.503Z,5.93
2023-01-13T05:35:52.689Z,4.60
2023-01-13T05:38:54.862Z,5.75
2023-01-13T05:42:15.484Z,4.75
2023-01-13T05:45:17.980Z,4.15
2023-01-13T05:48:21.934Z,4.55
2023-01-13T05:51:26.386Z,4.70
2023-01-13T05:54:28.627Z,3.78
2023-01-13T05:57:30.805Z,4.45
2023-01-13T06:00:33.161Z,4.15
2023-01-13T06:03:35.907Z,4.80
2023-01-13T06:06:38.131Z,4.07
2023-01-13T06:09:40.307Z,4.05
2023-01-13T06:12:42.604Z,5.25
2023-01-13T06:15:45.022Z,4.45
2023-01-13T06:18:47.265Z,4.22
2023-01-13T06:21:49.555Z,3.28
2023-01-13T06:24:53.800Z,3.75
2023-01-13T06:27:57.423Z,3.72
2023-01-13T06:31:01.361Z,3.92
2023-01-13T06:34:08.353Z,4.32
2023-01-13T06:37:12.867Z,3.87
2023-01-13T06:40:15.252Z,4.95
2023-01-13T06:43:17.939Z,3.97
2023-01-13T06:46:20.211Z,4.10
2023-01-13T06:49:22.398Z,4.40
2023-01-13T06:52:24.671Z,4.57
2023-01-13T06:55:26.928Z,4.43
2023-01-13T06:58:29.106Z,4.93
2023-01-13T07:01:31.350Z,4.50
2023-01-13T07:04:33.641Z,5.55
2023-01-13T07:07:35.850Z,4.82
2023-01-13T07:10:38.610Z,5.80
2023-01-13T07:13:59.116Z,5.55
2023-01-13T07:17:01.278Z,5.57
2023-01-13T07:20:03.721Z,5.97
2023-01-13T07:23:05.916Z,7.00
2023-01-13T07:26:09.317Z,5.87
2023-01-13T07:29:11.898Z,4.78
2023-01-13T07:32:15.437Z,6.72
2023-01-13T07:35:21.831Z,4.60
2023-01-13T07:38:24.143Z,4.78
2023-01-13T07:41:44.921Z,4.90
2023-01-13T07:44:47.088Z,6.73
2023-01-13T07:47:51.549Z,4.53
2023-01-13T07:50:54.703Z,4.35
2023-01-13T07:53:56.894Z,5.68
2023-01-13T07:56:59.064Z,5.55
2023-01-13T08:00:01.301Z,4.87
2023-01-13T08:03:03.550Z,3.97
2023-01-13T08:06:07.080Z,4.87
2023-01-13T08:09:09.609Z,3.55
2023-01-13T08:12:33.154Z,4.15
2023-01-13T08:15:35.329Z,3.67
2023-01-13T08:18:38.312Z,4.35
2023-01-13T08:21:40.543Z,3.50
2023-01-13T08:24:42.769Z,3.70
2023-01-13T08:27:44.994Z,4.18
2023-01-13T08:30:47.351Z,3.92
2023-01-13T08:33:49.584Z,5.35
2023-01-13T08:36:51.793Z,4.40
2023-01-13T08:39:54.005Z,5.75
2023-01-13T08:42:56.932Z,8.57
2023-01-13T08:46:01.597Z,6.68
2023-01-13T08:49:04.251Z,16.08
2023-01-13T08:52:06.718Z,6.30
2023-01-13T08:55:09.419Z,6.18
2023-01-13T08:58:15.872Z,6.50
2023-01-13T09:01:22.091Z,5.40
2023-01-13T09:04:27.602Z,4.10
2023-01-13T09:07:31.057Z,4.47
2023-01-13T09:10:33.737Z,4.60
2023-01-13T09:13:35.908Z,5.18
2023-01-13T09:16:38.075Z,4.25
2023-01-13T09:19:40.653Z,4.40
2023-01-13T09:22:42.824Z,5.82
2023-01-13T09:25:45.040Z,4.75
2023-01-13T09:28:47.582Z,4.95
2023-01-13T09:31:49.827Z,4.87
2023-01-13T09:35:00.660Z,4.93
2023-01-13T09:38:02.865Z,5.22
2023-01-13T09:41:25.053Z,7.55
2023-01-13T09:44:48.656Z,10.40
2023-01-13T09:47:59.882Z,7.22
2023-01-13T09:51:17.520Z,6.12
2023-01-13T09:54:34.267Z,5.22
2023-01-13T09:57:38.160Z,6.55
2023-01-13T10:01:10.937Z,5.75
2023-01-13T10:04:14.911Z,5.32
2023-01-13T10:07:17.309Z,4.03
2023-01-13T10:10:39.049Z,4.85
2023-01-13T10:13:41.624Z,4.78
2023-01-13T10:17:07.805Z,4.62
2023-01-13T10:20:30.392Z,3.58
2023-01-13T10:23:53.372Z,5.15
2023-01-13T10:27:01.067Z,3.45
2023-01-13T10:30:48.822Z,5.05
2023-01-13T10:34:01.478Z,4.37
2023-01-13T10:37:09.135Z,5.32
2023-01-13T10:40:16.567Z,5.12
2023-01-13T10:43:18.790Z,4.90
2023-01-13T10:46:21.089Z,4.97
2023-01-13T10:49:26.855Z,4.60
2023-01-13T10:52:31.411Z,5.07
2023-01-13T10:55:36.970Z,4.62
2023-01-13T10:58:39.131Z,4.30
2023-01-13T11:01:43.602Z,3.85
2023-01-13T11:04:59.497Z,5.28
2023-01-13T11:08:01.722Z,3.80
2023-01-13T11:11:03.965Z,4.68
2023-01-13T11:14:39.480Z,5.12
2023-01-13T11:17:47.671Z,4.53
2023-01-13T11:20:51.547Z,3.55
2023-01-13T11:24:11.509Z,4.05
2023-01-13T11:27:25.807Z,4.45
2023-01-13T11:30:42.971Z,4.62
2023-01-13T11:33:56.591Z,6.43
2023-01-13T11:37:01.023Z,5.70
2023-01-13T11:40:16.867Z,4.78
2023-01-13T11:43:19.027Z,5.37
2023-01-13T11:46:23.735Z,4.22
2023-01-13T11:49:28.656Z,4.68
2023-01-13T11:52:42.336Z,4.95
2023-01-13T11:55:56.145Z,4.75
2023-01-13T11:59:19.712Z,5.70
2023-01-13T12:02:51.538Z,4.85
2023-01-13T12:06:03.588Z,5.35
2023-01-13T12:09:18.022Z,5.43
2023-01-13T12:12:34.954Z,4.60
2023-01-13T12:15:49.315Z,4.40
2023-01-13T12:19:30.666Z,5.87
2023-01-13T12:22:35.359Z,5.28
2023-01-13T12:25:45.641Z,5.53
2023-01-13T12:28:58.377Z,5.05
2023-01-13T12:32:03.037Z,6.50
2023-01-13T12:35:28.199Z,5.18
2023-01-13T12:38:49.288Z,5.43
2023-01-13T12:42:25.455Z,6.40
2023-01-13T12:45:30.088Z,6.28
2023-01-13T12:48:57.106Z,6.10
2023-01-13T12:52:07.201Z,5.12
2023-01-13T12:55:13.916Z,4.60
2023-01-13T12:58:17.411Z,5.35
2023-01-13T13:01:35.404Z,5.25
2023-01-13T13:04:49.548Z,6.03
2023-01-13T13:08:01.758Z,6.53
2023-01-13T13:11:38.758Z,8.90
2023-01-13T13:14:40.879Z,8.57
2023-01-13T13:17:44.571Z,9.50
2023-01-13T13:21:04.726Z,7.37
2023-01-13T13:24:10.681Z,6.72
2023-01-13T13:27:21.602Z,6.53
2023-01-13T13:30:29.012Z,6.93
2023-01-13T13:33:43.810Z,6.03
2023-01-13T13:36:56.638Z,6.57
2023-01-13T13:40:24.179Z,5.68
2023-01-13T13:43:46.350Z,5.53
2023-01-13T13:46:50.405Z,5.97
2023-01-13T13:49:54.573Z,5.47
2023-01-13T13:53:05.199Z,7.25
2023-01-13T13:56:17.265Z,7.37
2023-01-13T13:59:33.682Z,8.15
2023-01-13T14:02:37.437Z,7.37
2023-01-13T14:05:39.709Z,5.28
2023-01-13T14:08:49.755Z,5.40
2023-01-13T14:12:19.348Z,6.93
2023-01-13T14:15:32.274Z,6.57
2023-01-13T14:18:45.940Z,6.80
2023-01-13T14:21:48.360Z,7.72
2023-01-13T14:24:57.665Z,6.65
2023-01-13T14:28:08.751Z,6.15
2023-01-13T14:31:11.118Z,6.60
2023-01-13T14:34:32.528Z,4.25
2023-01-13T14:37:37.941Z,5.20
2023-01-13T14:40:44.780Z,6.40
2023-01-13T14:43:51.114Z,4.97
2023-01-13T14:47:00.409Z,5.12
2023-01-13T14:50:27.780Z,6.57
2023-01-13T14:53:38.417Z,7.05
2023-01-13T14:56:49.126Z,9.13
2023-01-13T15:00:13.018Z,10.03
2023-01-13T15:03:16.952Z,7.93
2023-01-13T15:06:23.226Z,7.57
2023-01-13T15:09:40.303Z,8.48
2023-01-13T15:12:43.339Z,7.12
2023-01-13T15:15:50.030Z,6.75
2023-01-13T15:18:53.572Z,8.35
2023-01-13T15:21:55.781Z,7.20
2023-01-13T15:24:58.147Z,5.70
2023-01-13T15:28:00.434Z,6.47
2023-01-13T15:31:03.971Z,5.20
2023-01-13T15:34:06.323Z,5.22
2023-01-13T15:37:09.497Z,7.18
2023-01-13T15:40:15.150Z,6.22
2023-01-13T15:43:40.681Z,7.57
2023-01-13T15:46:42.955Z,8.13
2023-01-13T15:49:45.755Z,7.28
2023-01-13T15:52:47.895Z,6.40
2023-01-13T15:55:52.498Z,6.28
2023-01-13T15:58:55.141Z,6.72
2023-01-13T16:01:57.376Z,6.62
2023-01-13T16:04:59.549Z,5.43
2023-01-13T16:08:01.785Z,4.87
2023-01-13T16:11:04.094Z,5.25
2023-01-13T16:14:06.263Z,5.20
2023-01-13T16:17:19.975Z,5.15
2023-01-13T16:20:22.421Z,4.82
2023-01-13T16:23:24.610Z,4.07
2023-01-13T16:26:29.284Z,5.53
2023-01-13T16:29:31.427Z,5.78
2023-01-13T16:32:33.632Z,5.78
2023-01-13T16:35:35.834Z,6.62
2023-01-13T16:38:58.092Z,6.12
2023-01-13T16:42:00.381Z,6.03
2023-01-13T16:45:08.397Z,7.12
2023-01-13T16:48:19.355Z,5.93
2023-01-13T16:51:22.791Z,5.62
2023-01-13T16:54:24.943Z,4.60
2023-01-13T16:57:27.152Z,6.03
2023-01-13T17:00:29.824Z,7.12
2023-01-13T17:03:35.885Z,5.35
2023-01-13T17:06:53.132Z,5.80
2023-01-13T17:09:55.330Z,7.53
2023-01-13T17:13:00.066Z,6.32
2023-01-13T17:16:21.402Z,7.50
2023-01-13T17:19:24.157Z,5.75
2023-01-13T17:22:26.338Z,7.72
2023-01-13T17:25:28.501Z,4.72
2023-01-13T17:28:30.737Z,4.43
2023-01-13T17:31:34.633Z,5.60
2023-01-13T17:34:36.871Z,5.45
2023-01-13T17:37:39.072Z,5.25
2023-01-13T17:40:41.473Z,4.85
2023-01-13T17:43:43.883Z,6.12
2023-01-13T17:46:46.414Z,5.53
2023-01-13T17:49:48.778Z,5.80
2023-01-13T17:52:50.964Z,9.52
2023-01-13T17:55:55.142Z,10.15
2023-01-13T17:58:58.378Z,14.13
2023-01-13T18:02:00.673Z,12.55
2023-01-13T18:05:02.904Z,7.62
2023-01-13T18:08:05.316Z,5.68
2023-01-13T18:11:07.729Z,6.85
2023-01-13T18:14:10.369Z,8.77
2023-01-13T18:17:12.586Z,6.60
2023-01-13T18:20:42.404Z,7.10
2023-01-13T18:24:03.450Z,8.13
2023-01-13T18:27:24.188Z,15.23
2023-01-13T18:30:26.638Z,18.33
2023-01-13T18:33:29.072Z,14.68
2023-01-13T18:36:31.310Z,13.82
2023-01-13T18:39:33.985Z,12.15
2023-01-13T18:42:52.240Z,9.57
2023-01-13T18:45:54.507Z,11.15
2023-01-13T18:48:56.844Z,13.00
2023-01-13T18:51:59.080Z,12.57
2023-01-13T18:55:01.286Z,7.68
2023-01-13T18:58:03.578Z,6.25
2023-01-13T19:01:06.895Z,5.62
2023-01-13T19:04:15.822Z,7.00
2023-01-13T19:07:25.791Z,6.37
2023-01-13T19:10:31.824Z,6.70
2023-01-13T19:13:37.531Z,5.47
2023-01-13T19:16:39.996Z,7.00
2023-01-13T19:19:44.564Z,6.70
2023-01-13T19:22:53.732Z,7.43
2023-01-13T19:25:59.645Z,9.13
2023-01-13T19:29:01.800Z,10.00
2023-01-13T19:32:04.070Z,8.38
2023-01-13T19:35:07.292Z,7.95
2023-01-13T19:38:09.514Z,7.45
2023-01-13T19:41:31.675Z,9.43
2023-01-13T19:44:52.981Z,8.02
2023-01-13T19:47:57.104Z,7.22
2023-01-13T19:51:00.122Z,9.68
2023-01-13T19:54:02.518Z,8.75
2023-01-13T19:57:07.728Z,9.93
2023-01-13T20:00:11.417Z,8.60
2023-01-13T20:03:15.095Z,10.45
2023-01-13T20:06:17.255Z,13.98
2023-01-13T20:09:19.482Z,9.77
2023-01-13T20:12:21.795Z,8.75
2023-01-13T20:15:25.412Z,8.88
2023-01-13T20:18:32.547Z,11.10
2023-01-13T20:21:34.802Z,12.30
2023-01-13T20:24:37.132Z,10.85
2023-01-13T20:27:39.420Z,8.68
2023-01-13T20:30:41.735Z,6.70
2023-01-13T20:33:44.270Z,7.28
2023-01-13T20:36:47.972Z,8.05
2023-01-13T20:39:50.353Z,6.97
2023-01-13T20:42:52.798Z,6.53
2023-01-13T20:45:55.483Z,7.20
2023-01-13T20:48:57.698Z,9.15
2023-01-13T20:51:59.939Z,7.12
2023-01-13T20:55:02.249Z,10.85
2023-01-13T20:58:04.502Z,8.20
2023-01-13T21:01:07.122Z,9.65
2023-01-13T21:04:09.770Z,10.18
2023-01-13T21:07:12.028Z,9.52
2023-01-13T21:10:14.241Z,8.80
2023-01-13T21:13:35.000Z,7.65
2023-01-13T21:16:37.229Z,8.43
2023-01-13T21:19:39.424Z,9.00
2023-01-13T21:22:48.920Z,8.07
2023-01-13T21:25:51.071Z,9.40
2023-01-13T21:28:58.058Z,7.57
2023-01-13T21:32:00.316Z,6.50
2023-01-13T21:35:02.500Z,7.20
2023-01-13T21:38:04.673Z,8.88
2023-01-13T21:41:08.401Z,7.85
2023-01-13T21:44:37.681Z,7.00
2023-01-13T21:47:49.187Z,7.82
2023-01-13T21:50:52.877Z,5.90
2023-01-13T21:53:55.528Z,7.45
2023-01-13T21:56:57.693Z,8.10
2023-01-13T22:00:01.922Z,8.18
2023-01-13T22:03:05.350Z,7.43
2023-01-13T22:06:07.603Z,8.23
2023-01-13T22:09:12.786Z,6.70
2023-01-13T22:12:17.830Z,6.80
2023-01-13T22:15:20.546Z,7.28
2023-01-13T22:18:23.177Z,7.40
2023-01-13T22:21:25.794Z,7.65
2023-01-13T22:24:31.249Z,8.52
2023-01-13T22:27:39.220Z,8.43
2023-01-13T22:30:41.525Z,9.10
2023-01-13T22:33:47.068Z,7.35
2023-01-13T22:36:49.504Z,8.13
2023-01-13T22:39:51.671Z,6.93
2023-01-13T22:42:53.832Z,8.50
2023-01-13T22:46:06.941Z,8.73
2023-01-13T22:49:09.553Z,7.07
2023-01-13T22:52:11.691Z,7.87
2023-01-13T22:55:13.874Z,9.15
2023-01-13T22:58:16.059Z,7.40
2023-01-13T23:01:18.308Z,7.72
2023-01-13T23:04:20.627Z,8.13
2023-01-13T23:07:22.891Z,8.85
2023-01-13T23:10:25.071Z,10.18
2023-01-13T23:13:27.255Z,11.15
2023-01-13T23:16:31.108Z,8.77
2023-01-13T23:19:33.439Z,8.23
2023-01-13T23:22:38.603Z,7.65
2023-01-13T23:25:48.960Z,7.53
2023-01-13T23:28:51.284Z,7.00
2023-01-13T23:31:53.520Z,8.73
2023-01-13T23:34:55.739Z,8.02
2023-01-13T23:37:57.907Z,8.60
2023-01-13T23:41:00.309Z,6.18
2023-01-13T23:44:02.476Z,5.87
2023-01-13T23:47:04.691Z,7.32
2023-01-13T23:50:07.065Z,7.70
2023-01-13T23:53:09.641Z,6.57
2023-01-13T23:56:15.086Z,8.00
2023-01-13T23:59:17.259Z,6.57
